Time;durP1;ratioP1;P1;durP2;ratioP2;P2;SDS_P1;SDS_P2;PMS_P1;PMS_P2;Temp;Humidity;BMP_temperature;BMP_pressure;BME280_temperature;BME280_humidity;BME280_pressure;Samples;Min_cycle;Max_cycle;Signal;HPM_P1;HPM_P2
2021/10/22 00:01:40;;;;;;;6.53;3.78;;;7.30;99.90;;;;;;5048595;28;20222;-79
2021/10/22 00:04:07;;;;;;;3.58;3.13;;;7.30;99.90;;;;;;5054024;28;20292;-79
2021/10/22 00:06:34;;;;;;;3.97;3.55;;;7.30;99.90;;;;;;5040561;28;20210;-80
2021/10/22 00:09:01;;;;;;;2.88;2.67;;;7.30;99.90;;;;;;5034231;28;20202;-80
2021/10/22 00:11:27;;;;;;;3.55;3.15;;;7.20;99.90;;;;;;5035312;28;20198;-80
2021/10/22 00:13:56;;;;;;;3.38;3.08;;;7.20;99.90;;;;;;5049388;28;20210;-79
2021/10/22 00:16:22;;;;;;;3.13;2.90;;;7.10;99.90;;;;;;5053033;28;20206;-80
2021/10/22 00:18:49;;;;;;;3.25;3.03;;;7.00;99.90;;;;;;5054104;28;20212;-80
2021/10/22 00:21:16;;;;;;;3.85;3.40;;;6.90;99.90;;;;;;5044226;28;20253;-80
2021/10/22 00:23:43;;;;;;;3.90;3.53;;;6.90;99.90;;;;;;5033773;28;20213;-80
2021/10/22 00:26:11;;;;;;;6.40;3.90;;;6.90;99.90;;;;;;5041878;28;20240;-80
2021/10/22 00:28:38;;;;;;;4.80;2.85;;;6.90;99.90;;;;;;5054005;28;20339;-80
2021/10/22 00:31:06;;;;;;;5.65;3.80;;;6.90;99.90;;;;;;5041670;28;20211;-80
2021/10/22 00:33:32;;;;;;;3.92;2.88;;;6.90;99.90;;;;;;5033723;28;20210;-79
2021/10/22 00:36:00;;;;;;;3.58;3.28;;;6.80;99.90;;;;;;5044127;28;20229;-78
2021/10/22 00:38:27;;;;;;;4.38;3.13;;;6.80;99.90;;;;;;5053902;28;20205;-80
2021/10/22 00:40:54;;;;;;;5.00;4.40;;;6.80;99.90;;;;;;5053626;28;20226;-80
2021/10/22 00:43:21;;;;;;;5.68;4.40;;;6.80;99.90;;;;;;5053722;28;20216;-80
2021/10/22 00:45:51;;;;;;;6.28;3.60;;;6.80;99.90;;;;;;5044890;28;20316;-80
2021/10/22 00:48:19;;;;;;;4.63;3.90;;;6.80;99.90;;;;;;5033577;28;20622;-80
2021/10/22 00:50:50;;;;;;;4.93;2.72;;;6.80;99.90;;;;;;5033615;28;20241;-78
2021/10/22 00:53:18;;;;;;;3.50;3.10;;;6.90;99.90;;;;;;5033275;28;20217;-80
2021/10/22 00:55:45;;;;;;;3.50;2.80;;;6.90;99.90;;;;;;5033526;28;20253;-80
2021/10/22 00:58:12;;;;;;;2.80;2.45;;;7.00;99.90;;;;;;5033692;28;20623;-80
2021/10/22 01:00:39;;;;;;;4.03;2.80;;;7.00;99.90;;;;;;5043962;28;20240;-79
2021/10/22 01:03:06;;;;;;;4.00;3.35;;;7.00;99.90;;;;;;5053438;28;20221;-79
2021/10/22 01:05:34;;;;;;;2.80;2.60;;;7.10;99.90;;;;;;5053188;28;20264;-80
2021/10/22 01:08:02;;;;;;;3.15;2.95;;;7.10;99.90;;;;;;5053257;28;20206;-79
2021/10/22 01:10:29;;;;;;;3.15;2.85;;;7.10;99.90;;;;;;5053026;28;20217;-80
2021/10/22 01:12:57;;;;;;;3.45;2.90;;;7.20;99.90;;;;;;5053403;28;20210;-80
2021/10/22 01:15:24;;;;;;;2.92;2.65;;;7.20;99.90;;;;;;5052586;28;20217;-80
2021/10/22 01:17:51;;;;;;;3.75;3.45;;;7.20;99.90;;;;;;5053763;28;20675;-80
2021/10/22 01:20:19;;;;;;;6.03;3.28;;;7.10;99.90;;;;;;5048225;28;20202;-80
2021/10/22 01:22:49;;;;;;;3.22;3.03;;;7.20;99.90;;;;;;5034167;28;20230;-80
2021/10/22 01:25:19;;;;;;;2.53;2.33;;;7.30;99.90;;;;;;5036998;28;20252;-80
2021/10/22 01:27:47;;;;;;;3.53;2.78;;;7.30;99.90;;;;;;5037402;28;20218;-80
2021/10/22 01:30:16;;;;;;;3.97;3.63;;;7.40;99.90;;;;;;5037454;28;20210;-80
2021/10/22 01:32:43;;;;;;;3.58;3.28;;;7.50;99.90;;;;;;5037102;28;20306;-80
2021/10/22 01:35:11;;;;;;;2.95;2.65;;;7.50;99.90;;;;;;5043616;28;20225;-80
2021/10/22 01:37:39;;;;;;;3.40;3.10;;;7.60;99.90;;;;;;5056765;28;20256;-79
2021/10/22 01:40:09;;;;;;;3.03;2.33;;;7.50;99.90;;;;;;5056616;28;20256;-80
2021/10/22 01:42:36;;;;;;;4.20;2.60;;;7.60;99.90;;;;;;5056347;28;20235;-80
2021/10/22 01:45:03;;;;;;;2.72;2.60;;;7.70;99.90;;;;;;5056964;28;20228;-80
2021/10/22 01:47:30;;;;;;;5.90;4.00;;;7.60;99.90;;;;;;5069264;28;20216;-79
2021/10/22 01:49:57;;;;;;;5.10;3.03;;;7.60;99.90;;;;;;5074606;28;20261;-79
2021/10/22 01:52:23;;;;;;;4.15;2.58;;;7.40;99.90;;;;;;5063369;28;20560;-80
2021/10/22 01:54:50;;;;;;;3.03;2.72;;;7.30;99.90;;;;;;5050293;28;20226;-80
2021/10/22 01:57:18;;;;;;;4.63;4.15;;;7.30;99.90;;;;;;5036730;28;20210;-80
2021/10/22 01:59:46;;;;;;;3.53;3.22;;;7.20;99.90;;;;;;5043478;28;20296;-80
2021/10/22 02:02:13;;;;;;;3.72;3.25;;;7.20;99.90;;;;;;5056432;28;20228;-80
2021/10/22 02:04:40;;;;;;;4.25;3.65;;;7.10;99.90;;;;;;5049961;28;20254;-80
2021/10/22 02:07:07;;;;;;;5.00;3.83;;;7.10;99.90;;;;;;5036111;28;20210;-80
2021/10/22 02:09:34;;;;;;;3.65;3.35;;;7.00;99.90;;;;;;5036577;28;20613;-80
2021/10/22 02:12:00;;;;;;;6.50;4.43;;;7.00;99.90;;;;;;5036353;28;20206;-80
2021/10/22 02:14:29;;;;;;;4.13;3.35;;;7.00;99.90;;;;;;5036344;28;20227;-80
2021/10/22 02:16:55;;;;;;;5.22;2.80;;;7.00;99.90;;;;;;5036118;28;20591;-79
2021/10/22 02:19:22;;;;;;;3.95;3.65;;;6.90;99.90;;;;;;5038416;28;20207;-81
2021/10/22 02:21:49;;;;;;;3.10;2.75;;;6.80;99.90;;;;;;5056302;28;20217;-80
2021/10/22 02:24:16;;;;;;;8.85;4.18;;;6.80;99.90;;;;;;5039873;28;20222;-79
2021/10/22 02:26:42;;;;;;;4.28;3.10;;;6.90;99.90;;;;;;5035943;28;20191;-80
2021/10/22 02:29:09;;;;;;;5.18;3.83;;;6.90;99.90;;;;;;5049780;28;20212;-80
2021/10/22 02:31:37;;;;;;;7.40;3.53;;;6.90;99.90;;;;;;5055765;28;20213;-80
2021/10/22 02:34:04;;;;;;;4.95;3.25;;;7.00;99.90;;;;;;5051557;28;20205;-80
2021/10/22 02:36:31;;;;;;;3.40;2.60;;;6.90;99.90;;;;;;5055569;28;20216;-80
2021/10/22 02:38:57;;;;;;;5.30;3.00;;;6.90;99.90;;;;;;5057606;28;20232;-83
2021/10/22 02:41:24;;;;;;;3.50;3.20;;;6.80;99.90;;;;;;5059861;28;20695;-81
2021/10/22 02:43:51;;;;;;;3.20;2.90;;;6.80;99.90;;;;;;5042739;28;20206;-83
2021/10/22 02:46:18;;;;;;;2.65;2.45;;;6.70;99.90;;;;;;5043448;28;20586;-83
2021/10/22 02:48:46;;;;;;;3.25;2.60;;;6.60;99.90;;;;;;5061156;28;20205;-83
2021/10/22 02:51:13;;;;;;;3.67;2.28;;;6.50;99.90;;;;;;5059428;28;20209;-83
2021/10/22 02:53:39;;;;;;;3.20;2.90;;;6.40;99.90;;;;;;5040723;28;20206;-83
2021/10/22 02:56:06;;;;;;;3.95;3.20;;;6.40;99.90;;;;;;5037525;28;20609;-80
2021/10/22 02:58:33;;;;;;;4.47;4.07;;;6.30;99.90;;;;;;5052675;28;20202;-80
2021/10/22 03:01:00;;;;;;;4.55;2.55;;;6.20;99.90;;;;;;5035452;28;20824;-80
2021/10/22 03:03:27;;;;;;;5.15;2.45;;;6.20;99.90;;;;;;5035725;28;20242;-80
2021/10/22 03:05:55;;;;;;;4.80;2.80;;;6.20;99.90;;;;;;5035160;28;20230;-80
2021/10/22 03:08:22;;;;;;;5.13;2.65;;;6.10;99.90;;;;;;5053273;28;20197;-80
2021/10/22 03:10:49;;;;;;;7.10;2.50;;;6.10;99.90;;;;;;5055352;28;20216;-79
2021/10/22 03:13:15;;;;;;;7.45;3.95;;;6.10;99.90;;;;;;5038458;28;20202;-80
2021/10/22 03:15:42;;;;;;;8.10;2.90;;;6.00;99.90;;;;;;5034649;28;20720;-80
2021/10/22 03:18:09;;;;;;;5.53;2.80;;;6.00;99.90;;;;;;5034873;28;20217;-80
2021/10/22 03:20:36;;;;;;;2.88;2.53;;;6.00;99.90;;;;;;5036697;28;20297;-80
2021/10/22 03:23:04;;;;;;;4.57;2.97;;;5.90;99.90;;;;;;5054524;28;20782;-80
2021/10/22 03:25:31;;;;;;;2.67;2.30;;;5.80;99.90;;;;;;5054166;28;20259;-80
2021/10/22 03:28:03;;;;;;;6.78;3.45;;;5.80;99.90;;;;;;5050001;28;20195;-80
2021/10/22 03:30:31;;;;;;;5.80;3.15;;;5.80;99.90;;;;;;5051934;28;20276;-80
2021/10/22 03:32:58;;;;;;;4.18;3.28;;;5.70;99.90;;;;;;5047828;28;20202;-80
2021/10/22 03:35:24;;;;;;;7.78;3.55;;;5.70;99.90;;;;;;5033973;28;20230;-80
2021/10/22 03:37:51;;;;;;;8.35;3.25;;;5.60;99.90;;;;;;5034259;28;20213;-80
2021/10/22 03:40:21;;;;;;;6.50;2.90;;;5.60;99.90;;;;;;5034336;28;20676;-78
2021/10/22 03:42:48;;;;;;;5.43;3.50;;;5.60;99.90;;;;;;5034654;28;20242;-79
2021/10/22 03:45:15;;;;;;;6.00;2.85;;;5.50;99.90;;;;;;5038638;28;20213;-80
2021/10/22 03:47:42;;;;;;;5.18;3.50;;;5.50;99.90;;;;;;5053860;28;20213;-79
2021/10/22 03:50:10;;;;;;;5.35;3.30;;;5.50;99.90;;;;;;5045574;28;20199;-80
2021/10/22 03:52:37;;;;;;;7.70;3.92;;;5.50;99.90;;;;;;5033854;28;20202;-80
2021/10/22 03:55:04;;;;;;;4.72;2.90;;;5.60;99.90;;;;;;5034249;28;20265;-80
2021/10/22 03:57:32;;;;;;;6.88;3.72;;;5.70;99.90;;;;;;5034582;28;20229;-80
2021/10/22 04:00:00;;;;;;;3.72;3.42;;;5.70;99.90;;;;;;5041548;28;20667;-80
2021/10/22 04:02:27;;;;;;;5.35;2.40;;;5.90;99.90;;;;;;5053964;28;20222;-80
2021/10/22 04:04:54;;;;;;;5.07;3.42;;;5.90;99.90;;;;;;5053870;28;20226;-80
2021/10/22 04:07:20;;;;;;;6.50;2.83;;;5.90;99.90;;;;;;5042142;28;20198;-80
2021/10/22 04:09:47;;;;;;;5.15;2.75;;;5.90;99.90;;;;;;5034197;28;20209;-80
2021/10/22 04:12:14;;;;;;;6.70;3.00;;;5.90;99.90;;;;;;5034103;28;20210;-79
2021/10/22 04:14:42;;;;;;;5.47;3.00;;;6.00;99.90;;;;;;5036864;28;20229;-80
2021/10/22 04:17:09;;;;;;;2.05;1.95;;;6.00;99.90;;;;;;5053489;28;20210;-80
2021/10/22 04:19:36;;;;;;;4.18;2.88;;;6.00;99.90;;;;;;5059873;28;20206;-79
2021/10/22 04:22:03;;;;;;;3.80;2.33;;;5.90;99.90;;;;;;5054202;28;20227;-80
2021/10/22 04:24:29;;;;;;;5.32;3.17;;;5.90;99.90;;;;;;5064428;28;20217;-78
2021/10/22 04:26:56;;;;;;;7.63;3.17;;;5.70;99.90;;;;;;5068708;28;20206;-82
2021/10/22 04:29:23;;;;;;;3.72;3.40;;;5.60;99.90;;;;;;5062153;28;20206;-81
2021/10/22 04:31:51;;;;;;;6.30;2.63;;;5.60;99.90;;;;;;5059676;28;20194;-82
2021/10/22 04:34:18;;;;;;;3.58;2.70;;;5.50;99.90;;;;;;5048935;28;20571;-82
2021/10/22 04:36:47;;;;;;;5.72;2.90;;;5.40;99.90;;;;;;5062544;28;20202;-81
2021/10/22 04:41:58;;;;;;;6.53;3.47;;;5.20;99.90;;;;;;5050047;28;20450;-82
2021/10/22 04:44:27;;;;;;;5.88;3.00;;;5.20;99.90;;;;;;5041768;28;20233;-80
2021/10/22 04:46:55;;;;;;;10.60;3.53;;;5.20;99.90;;;;;;5053029;28;20237;-82
2021/10/22 04:49:22;;;;;;;3.50;3.10;;;5.10;99.90;;;;;;5041348;28;20210;-81
2021/10/22 04:51:48;;;;;;;5.13;4.57;;;5.10;99.90;;;;;;5051629;28;20215;-81
2021/10/22 04:54:15;;;;;;;15.43;4.00;;;5.10;99.90;;;;;;5060082;28;20221;-81
2021/10/22 04:56:42;;;;;;;6.07;3.40;;;5.20;99.90;;;;;;5060731;28;20209;-82
2021/10/22 04:59:09;;;;;;;11.63;4.00;;;5.10;99.90;;;;;;5064505;28;20209;-81
2021/10/22 05:01:35;;;;;;;5.25;3.97;;;5.10;99.90;;;;;;5065518;28;20292;-81
2021/10/22 05:04:03;;;;;;;7.75;3.97;;;5.10;99.90;;;;;;5065922;28;20225;-82
2021/10/22 05:06:30;;;;;;;8.13;4.32;;;5.20;99.90;;;;;;5065457;28;20604;-80
2021/10/22 05:08:57;;;;;;;5.82;5.18;;;5.20;99.90;;;;;;5065588;28;20209;-81
2021/10/22 05:11:24;;;;;;;6.22;4.40;;;5.20;99.90;;;;;;5055445;28;20609;-81
2021/10/22 05:13:50;;;;;;;6.40;3.95;;;5.20;99.90;;;;;;5053445;28;20209;-81
2021/10/22 05:16:17;;;;;;;9.05;4.93;;;5.20;99.90;;;;;;5065339;28;20226;-80
2021/10/22 05:18:44;;;;;;;9.13;4.13;;;5.10;99.90;;;;;;5064646;28;20206;-80
2021/10/22 05:21:12;;;;;;;6.65;3.20;;;4.90;99.90;;;;;;5065562;28;20214;-81
2021/10/22 05:23:39;;;;;;;7.63;3.88;;;4.90;99.90;;;;;;5046335;28;20234;-80
2021/10/22 05:26:06;;;;;;;3.80;3.42;;;4.90;99.90;;;;;;5044177;28;20238;-80
2021/10/22 05:28:33;;;;;;;4.57;3.45;;;4.90;99.90;;;;;;5045109;28;20805;-78
2021/10/22 05:30:59;;;;;;;7.78;4.05;;;4.90;99.90;;;;;;5044835;28;20206;-80
2021/10/22 05:33:26;;;;;;;6.95;4.63;;;4.90;99.90;;;;;;5047080;28;20595;-80
2021/10/22 05:35:53;;;;;;;3.97;3.67;;;5.00;99.90;;;;;;5044445;28;20223;-81
2021/10/22 05:38:21;;;;;;;6.68;5.22;;;5.00;99.90;;;;;;5058352;28;20205;-81
2021/10/22 05:40:48;;;;;;;7.75;5.80;;;5.10;99.90;;;;;;5064819;28;20202;-81
2021/10/22 05:43:14;;;;;;;7.93;5.10;;;5.10;99.90;;;;;;5075093;28;20230;-79
2021/10/22 05:45:42;;;;;;;7.80;4.72;;;5.00;99.90;;;;;;5075018;28;20237;-78
2021/10/22 05:48:09;;;;;;;8.88;4.70;;;5.10;99.90;;;;;;5065122;28;20217;-82
2021/10/22 05:50:39;;;;;;;9.60;4.28;;;5.10;99.90;;;;;;5065920;28;20269;-82
2021/10/22 05:53:06;;;;;;;6.25;3.83;;;5.10;99.90;;;;;;5050311;28;20620;-82
2021/10/22 05:55:34;;;;;;;6.25;4.72;;;5.10;99.90;;;;;;5045023;28;20300;-81
2021/10/22 05:58:01;;;;;;;7.32;4.22;;;5.20;99.90;;;;;;5064209;28;20198;-81
2021/10/22 06:00:27;;;;;;;6.72;4.20;;;5.20;99.90;;;;;;5065145;28;20213;-81
2021/10/22 06:02:55;;;;;;;11.23;4.25;;;5.20;99.90;;;;;;5064964;28;20222;-81
2021/10/22 06:05:22;;;;;;;6.60;3.50;;;5.20;99.90;;;;;;5064961;28;20287;-81
2021/10/22 06:07:49;;;;;;;13.27;3.50;;;5.30;99.90;;;;;;5064215;28;20344;-82
2021/10/22 06:10:15;;;;;;;10.57;4.50;;;5.30;99.90;;;;;;5063659;28;20205;-82
2021/10/22 06:12:43;;;;;;;8.57;4.05;;;5.30;99.90;;;;;;5048251;28;20250;-82
2021/10/22 06:15:10;;;;;;;6.22;4.28;;;5.30;99.90;;;;;;5040011;28;20234;-82
2021/10/22 06:17:37;;;;;;;5.60;4.45;;;5.30;99.90;;;;;;5039216;28;20209;-81
2021/10/22 06:20:11;;;;;;;5.35;3.40;;;5.20;99.90;;;;;;5038102;28;20206;-80
2021/10/22 06:22:51;;;;;;;7.75;3.67;;;5.20;99.90;;;;;;5037789;28;20229;-81
2021/10/22 06:25:20;;;;;;;4.57;3.53;;;5.30;99.90;;;;;;5037893;28;20284;-81
2021/10/22 06:27:50;;;;;;;5.53;3.35;;;5.20;99.90;;;;;;5037202;28;20203;-79
2021/10/22 06:30:17;;;;;;;9.07;4.00;;;5.30;99.90;;;;;;5037090;28;20237;-80
2021/10/22 06:32:44;;;;;;;8.68;4.90;;;5.30;99.90;;;;;;5036638;28;20210;-80
2021/10/22 06:35:11;;;;;;;6.28;3.17;;;5.30;99.90;;;;;;5033720;28;20215;-79
2021/10/22 06:37:38;;;;;;;5.63;3.58;;;5.40;99.90;;;;;;5035172;28;20206;-79
2021/10/22 06:40:05;;;;;;;4.00;3.55;;;5.40;99.90;;;;;;5034596;28;20206;-81
2021/10/22 06:42:32;;;;;;;6.13;3.20;;;5.50;99.90;;;;;;5034775;28;20226;-82
2021/10/22 06:45:00;;;;;;;5.93;3.80;;;5.50;99.90;;;;;;5034227;28;20452;-79
2021/10/22 06:47:27;;;;;;;10.95;5.00;;;5.60;99.90;;;;;;5035036;28;20686;-80
2021/10/22 06:49:54;;;;;;;9.07;4.22;;;5.70;99.90;;;;;;5035205;28;20687;-80
2021/10/22 06:52:21;;;;;;;7.93;4.25;;;5.70;99.90;;;;;;5032600;28;20636;-80
2021/10/22 06:54:47;;;;;;;9.18;3.92;;;5.80;99.90;;;;;;5035149;28;20222;-79
2021/10/22 06:57:14;;;;;;;4.28;3.90;;;5.80;99.90;;;;;;5034677;28;20213;-81
2021/10/22 06:59:41;;;;;;;10.27;4.45;;;5.80;99.90;;;;;;5055576;28;20202;-83
2021/10/22 07:02:09;;;;;;;7.70;3.90;;;5.70;99.90;;;;;;5052657;28;20202;-83
2021/10/22 07:04:37;;;;;;;5.22;3.58;;;5.80;99.90;;;;;;5057873;28;20228;-82
2021/10/22 07:07:16;;;;;;;9.07;4.38;;;5.80;99.90;;;;;;5063194;28;20270;-84
2021/10/22 07:09:43;;;;;;;11.27;4.03;;;5.80;99.90;;;;;;5048643;28;20210;-82
2021/10/22 07:12:10;;;;;;;7.75;4.55;;;5.90;99.90;;;;;;5049322;28;20204;-82
2021/10/22 07:14:37;;;;;;;8.68;4.43;;;5.90;99.90;;;;;;5048928;28;20269;-83
2021/10/22 07:17:05;;;;;;;8.50;4.90;;;6.00;99.90;;;;;;5047674;28;20198;-81
2021/10/22 07:19:34;;;;;;;8.07;3.65;;;6.00;99.90;;;;;;5056564;28;20293;-80
2021/10/22 07:22:05;;;;;;;8.40;4.68;;;6.00;99.90;;;;;;5050759;28;20222;-80
2021/10/22 07:24:32;;;;;;;6.40;3.70;;;6.10;99.90;;;;;;5039568;28;20712;-80
2021/10/22 07:27:00;;;;;;;11.23;5.22;;;6.10;99.90;;;;;;5037401;28;20699;-80
2021/10/22 07:29:27;;;;;;;6.63;4.35;;;6.20;99.90;;;;;;5037296;28;20205;-80
2021/10/22 07:31:54;;;;;;;7.80;4.65;;;6.10;99.90;;;;;;5034814;28;20202;-83
2021/10/22 07:34:21;;;;;;;9.45;7.20;;;6.20;99.90;;;;;;5034244;28;20232;-80
2021/10/22 07:36:51;;;;;;;10.45;4.95;;;6.20;99.90;;;;;;5034173;28;20210;-80
2021/10/22 07:39:18;;;;;;;5.05;3.08;;;6.40;99.90;;;;;;5034259;28;20256;-82
2021/10/22 07:41:45;;;;;;;8.98;4.80;;;6.50;99.90;;;;;;5034576;28;20203;-81
2021/10/22 07:44:12;;;;;;;10.77;4.00;;;6.60;99.90;;;;;;5034129;28;20229;-82
2021/10/22 07:46:41;;;;;;;7.90;3.72;;;6.60;99.90;;;;;;5033767;28;20691;-80
2021/10/22 07:49:09;;;;;;;7.82;3.72;;;6.70;99.90;;;;;;5034445;28;20348;-79
2021/10/22 07:51:36;;;;;;;9.23;4.47;;;6.70;99.90;;;;;;5034171;28;20213;-80
2021/10/22 07:54:04;;;;;;;9.38;4.78;;;6.80;99.90;;;;;;5033842;28;20202;-80
2021/10/22 07:56:31;;;;;;;6.22;3.72;;;6.80;99.90;;;;;;5033716;28;20203;-79
2021/10/22 07:58:57;;;;;;;7.82;4.50;;;6.80;99.90;;;;;;5034034;28;20198;-81
2021/10/22 08:01:24;;;;;;;7.75;3.63;;;6.80;99.90;;;;;;5033788;28;20294;-81
2021/10/22 08:03:52;;;;;;;5.55;4.00;;;6.90;99.90;;;;;;5033410;28;20317;-82
2021/10/22 08:06:19;;;;;;;10.30;4.07;;;6.80;99.90;;;;;;5032945;28;20237;-79
2021/10/22 08:08:46;;;;;;;10.30;5.30;;;6.80;99.90;;;;;;5033692;28;20203;-80
2021/10/22 08:11:15;;;;;;;12.80;4.03;;;6.90;99.90;;;;;;5034088;28;20213;-83
2021/10/22 08:13:42;;;;;;;10.23;3.42;;;6.90;99.90;;;;;;5033455;28;20205;-80
2021/10/22 08:16:09;;;;;;;10.35;4.53;;;6.80;99.90;;;;;;5033470;28;20250;-82
2021/10/22 08:18:38;;;;;;;10.63;4.43;;;6.90;99.90;;;;;;5033552;28;20202;-81
2021/10/22 08:21:16;;;;;;;11.07;3.70;;;7.00;99.90;;;;;;5033590;28;20206;-81
2021/10/22 08:23:43;;;;;;;6.47;3.42;;;7.10;99.90;;;;;;5033596;28;20665;-81
2021/10/22 08:26:10;;;;;;;5.07;2.72;;;7.00;99.90;;;;;;5033095;28;20256;-82
2021/10/22 08:28:38;;;;;;;13.15;3.85;;;7.20;99.90;;;;;;5033764;28;20211;-83
2021/10/22 08:31:06;;;;;;;6.25;3.72;;;7.40;99.90;;;;;;5033331;28;20206;-82
2021/10/22 08:33:34;;;;;;;7.45;3.30;;;7.40;99.90;;;;;;5032648;28;20205;-81
2021/10/22 08:36:01;;;;;;;10.35;2.70;;;7.50;99.90;;;;;;5033430;28;20234;-81
2021/10/22 08:38:28;;;;;;;7.10;2.25;;;7.50;99.90;;;;;;5033161;28;20216;-81
2021/10/22 08:40:55;;;;;;;4.78;2.58;;;7.50;99.90;;;;;;5033575;28;20217;-83
2021/10/22 08:43:24;;;;;;;3.65;2.78;;;7.50;99.90;;;;;;5033202;28;20226;-79
2021/10/22 08:45:53;;;;;;;5.47;2.45;;;7.50;99.90;;;;;;5032952;28;20237;-81
2021/10/22 08:48:20;;;;;;;6.43;2.55;;;7.40;99.90;;;;;;5033404;28;20402;-82
2021/10/22 08:50:47;;;;;;;4.97;1.98;;;7.50;99.90;;;;;;5033058;28;20210;-82
2021/10/22 08:53:14;;;;;;;6.57;2.72;;;7.50;99.90;;;;;;5033092;28;20206;-81
2021/10/22 08:55:41;;;;;;;8.23;2.65;;;7.50;99.90;;;;;;5061097;22;20594;-83
2021/10/22 08:58:08;;;;;;;4.15;2.30;;;7.60;99.90;;;;;;5042661;28;20202;-82
2021/10/22 09:00:34;;;;;;;3.05;2.28;;;7.60;99.90;;;;;;5041884;28;20211;-83
2021/10/22 09:03:10;;;;;;;1.67;1.58;;;7.60;99.90;;;;;;5042897;28;20206;-83
2021/10/22 09:05:38;;;;;;;2.30;1.58;;;7.70;99.90;;;;;;5052625;28;20308;-83
2021/10/22 09:08:06;;;;;;;5.55;2.53;;;7.70;99.90;;;;;;5063027;28;20217;-83
2021/10/22 09:10:35;;;;;;;8.48;2.35;;;7.90;99.90;;;;;;5063082;28;20212;-83
2021/10/22 09:13:05;;;;;;;2.97;2.60;;;8.00;99.90;;;;;;5062991;28;20278;-82
2021/10/22 09:15:34;;;;;;;9.30;3.10;;;8.00;99.90;;;;;;5062839;28;20229;-83
2021/10/22 09:18:05;;;;;;;6.32;2.65;;;7.90;99.90;;;;;;5063357;28;20678;-83
2021/10/22 09:20:33;;;;;;;4.50;1.85;;;7.90;99.90;;;;;;5062890;28;20213;-83
2021/10/22 09:23:01;;;;;;;5.72;1.90;;;8.00;99.90;;;;;;5062388;28;20213;-83
2021/10/22 09:25:31;;;;;;;5.40;2.35;;;8.00;99.90;;;;;;5062413;28;20226;-83
2021/10/22 09:27:59;;;;;;;6.38;2.67;;;8.00;99.90;;;;;;5062072;28;20744;-83
2021/10/22 09:30:38;;;;;;;3.03;2.42;;;8.10;99.90;;;;;;5062407;28;20207;-82
2021/10/22 09:33:06;;;;;;;5.25;1.92;;;8.30;99.90;;;;;;5062171;28;20620;-83
2021/10/22 09:35:38;;;;;;;5.05;2.47;;;8.40;99.90;;;;;;5057289;28;20246;-83
2021/10/22 09:38:09;;;;;;;4.25;1.50;;;8.40;99.90;;;;;;5060442;28;20202;-82
2021/10/22 09:40:37;;;;;;;5.20;2.03;;;8.40;99.90;;;;;;5058568;28;20199;-83
2021/10/22 09:43:13;;;;;;;3.67;1.50;;;8.30;99.90;;;;;;5044385;28;20206;-83
2021/10/22 09:45:40;;;;;;;4.57;1.55;;;8.40;99.90;;;;;;5057717;28;20213;-83
2021/10/22 09:48:30;;;;;;;3.83;2.08;;;8.40;99.90;;;;;;5060151;28;20203;-84
2021/10/22 09:51:27;;;;;;;4.60;1.73;;;8.60;99.90;;;;;;5054326;28;20212;-84
2021/10/22 09:53:55;;;;;;;2.00;1.75;;;8.70;99.90;;;;;;5040821;28;20660;-82
2021/10/22 09:56:24;;;;;;;5.85;1.92;;;8.80;99.90;;;;;;5039169;28;20614;-81
2021/10/22 09:58:56;;;;;;;4.15;1.60;;;8.90;99.90;;;;;;5047177;28;20210;-79
2021/10/22 10:01:29;;;;;;;4.60;2.45;;;8.90;99.80;;;;;;5041514;28;20211;-79
2021/10/22 10:04:10;;;;;;;1.77;1.35;;;9.00;99.60;;;;;;5041532;28;20236;-82
2021/10/22 10:06:40;;;;;;;4.00;1.60;;;9.10;98.50;;;;;;5050550;28;20226;-80
2021/10/22 10:09:08;;;;;;;1.88;1.17;;;9.10;97.40;;;;;;5049740;28;20222;-82
2021/10/22 10:11:36;;;;;;;1.85;1.30;;;9.20;96.70;;;;;;5052202;28;20222;-81
2021/10/22 10:14:03;;;;;;;4.45;1.90;;;9.20;95.60;;;;;;5042363;28;20204;-81
2021/10/22 10:16:31;;;;;;;3.10;1.70;;;9.30;96.00;;;;;;5060563;28;20238;-82
2021/10/22 10:19:03;;;;;;;6.93;1.50;;;9.30;95.50;;;;;;5059013;28;20452;-81
2021/10/22 10:21:34;;;;;;;2.27;1.83;;;9.40;95.90;;;;;;5040033;28;20950;-79
2021/10/22 10:24:03;;;;;;;2.50;1.40;;;9.30;94.10;;;;;;5043504;28;20494;-82
2021/10/22 10:26:32;;;;;;;1.75;1.10;;;9.30;94.00;;;;;;5059263;28;20473;-80
2021/10/22 10:29:00;;;;;;;3.72;1.15;;;9.30;94.50;;;;;;5055037;28;20312;-80
2021/10/22 10:31:45;;;;;;;2.05;1.15;;;9.30;93.00;;;;;;5063336;28;20214;-83
2021/10/22 10:34:35;;;;;;;1.75;1.38;;;9.30;93.20;;;;;;5046757;28;20207;-82
2021/10/22 10:37:04;;;;;;;3.47;1.38;;;9.40;91.60;;;;;;5059664;28;20581;-83
2021/10/22 10:39:55;;;;;;;5.80;2.03;;;9.70;91.90;;;;;;5054061;28;20311;-83
2021/10/22 10:42:25;;;;;;;3.20;1.23;;;10.30;92.00;;;;;;5055923;28;20942;-83
2021/10/22 10:44:53;;;;;;;2.93;1.20;;;10.70;90.60;;;;;;5046513;28;20521;-83
2021/10/22 10:47:47;;;;;;;2.43;1.10;;;11.00;88.80;;;;;;5060639;28;20455;-84
2021/10/22 10:50:17;;;;;;;3.40;1.53;;;11.30;85.50;;;;;;5055824;28;20467;-83
2021/10/22 10:53:02;;;;;;;2.00;1.43;;;11.40;81.90;;;;;;5052897;28;20521;-83
2021/10/22 10:55:32;;;;;;;2.10;1.13;;;11.70;84.40;;;;;;5040513;28;20489;-85
2021/10/22 10:58:13;;;;;;;1.07;1.00;;;12.20;86.40;;;;;;5051389;28;20897;-84
2021/10/22 11:00:45;;;;;;;3.83;1.10;;;12.50;83.30;;;;;;5048655;28;20489;-81
2021/10/22 11:03:16;;;;;;;2.67;1.27;;;12.50;80.80;;;;;;5045094;28;20517;-80
2021/10/22 11:06:14;;;;;;;2.20;1.70;;;12.80;80.70;;;;;;5056534;28;20591;-79
2021/10/22 11:08:50;;;;;;;3.73;2.03;;;13.00;77.00;;;;;;5051305;28;20455;-82
2021/10/22 11:11:59;;;;;;;1.03;1.00;;;13.20;78.40;;;;;;5058093;28;20450;-82
2021/10/22 11:14:28;;;;;;;1.67;0.90;;;13.40;73.70;;;;;;5039485;28;20866;-82
2021/10/22 11:16:57;;;;;;;1.70;1.30;;;13.40;72.90;;;;;;5050328;28;20449;-83
2021/10/22 11:19:33;;;;;;;4.53;2.93;;;13.50;71.40;;;;;;5048043;28;20456;-82
2021/10/22 11:22:03;;;;;;;4.47;0.93;;;13.80;74.60;;;;;;5052577;28;21003;-82
2021/10/22 11:24:32;;;;;;;2.30;1.30;;;14.00;69.50;;;;;;5057169;28;20865;-81
2021/10/22 11:27:02;;;;;;;1.73;1.10;;;13.90;70.60;;;;;;5045652;28;20457;-82
2021/10/22 11:29:31;;;;;;;3.00;1.00;;;14.20;71.60;;;;;;5043976;28;20520;-81
2021/10/22 11:32:00;;;;;;;3.90;0.77;;;14.80;70.50;;;;;;5053922;28;20950;-82
2021/10/22 11:34:29;;;;;;;2.20;1.10;;;14.80;65.70;;;;;;5056308;28;20546;-80
2021/10/22 11:37:01;;;;;;;2.57;1.50;;;14.20;65.30;;;;;;5054410;28;20488;-80
2021/10/22 11:39:32;;;;;;;0.77;0.67;;;13.60;64.90;;;;;;5052806;28;20890;-79
2021/10/22 11:42:06;;;;;;;1.77;0.80;;;13.50;63.90;;;;;;5054414;28;20477;-81
2021/10/22 11:44:33;;;;;;;3.63;1.60;;;13.30;63.30;;;;;;5053135;28;20997;-81
2021/10/22 11:47:00;;;;;;;2.13;0.93;;;13.40;63.10;;;;;;5053726;28;20960;-81
2021/10/22 11:49:28;;;;;;;3.47;3.23;;;13.00;63.30;;;;;;5054097;28;20456;-80
2021/10/22 11:51:57;;;;;;;1.60;0.80;;;13.20;63.60;;;;;;5055326;28;20452;-80
2021/10/22 11:54:24;;;;;;;1.87;1.30;;;13.70;66.00;;;;;;5042076;28;20445;-81
2021/10/22 11:56:51;;;;;;;2.37;1.10;;;14.00;59.80;;;;;;5055863;28;20456;-80
2021/10/22 11:59:22;;;;;;;2.17;1.13;;;14.30;60.90;;;;;;5054791;28;20447;-80
2021/10/22 12:01:49;;;;;;;3.80;1.20;;;14.20;57.10;;;;;;5046186;28;20448;-80
2021/10/22 12:04:25;;;;;;;2.23;1.43;;;14.40;59.30;;;;;;5035243;28;21077;-81
2021/10/22 12:07:00;;;;;;;2.10;1.33;;;14.50;57.10;;;;;;5043024;28;20560;-80
2021/10/22 12:09:29;;;;;;;3.03;1.33;;;14.40;57.80;;;;;;5055822;28;20456;-81
2021/10/22 12:12:11;;;;;;;0.87;0.87;;;14.40;58.10;;;;;;5046302;28;20994;-79
2021/10/22 12:14:41;;;;;;;3.93;1.97;;;14.70;59.20;;;;;;5035022;28;20446;-79
2021/10/22 12:17:12;;;;;;;1.70;1.40;;;15.30;58.80;;;;;;5044888;28;20452;-81
2021/10/22 12:19:40;;;;;;;1.67;1.57;;;15.70;57.50;;;;;;5054901;28;20499;-81
2021/10/22 12:22:07;;;;;;;2.00;1.10;;;15.10;54.80;;;;;;5046308;28;20950;-80
2021/10/22 12:24:46;;;;;;;1.33;1.10;;;15.00;58.50;;;;;;5036851;28;20488;-81
2021/10/22 12:27:13;;;;;;;2.57;1.90;;;14.80;56.30;;;;;;5043535;28;20449;-80
2021/10/22 12:29:53;;;;;;;2.80;1.00;;;14.60;56.40;;;;;;5054333;28;20456;-79
2021/10/22 12:32:43;;;;;;;1.23;1.07;;;14.60;57.20;;;;;;5044742;28;20469;-82
2021/10/22 12:35:18;;;;;;;2.50;0.90;;;14.10;56.30;;;;;;5030451;28;20507;-81
2021/10/22 12:37:47;;;;;;;2.97;1.47;;;13.70;57.20;;;;;;5044410;28;21032;-82
2021/10/22 12:40:24;;;;;;;1.83;1.10;;;13.50;58.10;;;;;;5036455;28;20449;-80
2021/10/22 12:43:22;;;;;;;1.37;0.80;;;13.90;60.60;;;;;;5055538;28;20463;-80
2021/10/22 12:46:03;;;;;;;2.10;1.30;;;14.40;59.90;;;;;;5005624;28;20513;-80
2021/10/22 12:48:32;;;;;;;1.10;1.00;;;14.80;59.40;;;;;;5033638;28;20934;-80
2021/10/22 12:51:04;;;;;;;1.57;1.23;;;15.20;59.30;;;;;;5039708;28;20452;-80
2021/10/22 12:53:34;;;;;;;3.13;1.63;;;14.80;58.80;;;;;;5054649;28;20460;-80
2021/10/22 12:56:04;;;;;;;4.80;1.60;;;14.60;59.70;;;;;;5050855;28;20476;-81
2021/10/22 12:58:31;;;;;;;3.97;1.23;;;14.00;57.20;;;;;;5052685;28;20884;-80
2021/10/22 13:01:11;;;;;;;1.37;0.97;;;13.70;57.10;;;;;;5053121;28;20463;-80
2021/10/22 13:03:39;;;;;;;2.70;0.97;;;13.50;57.80;;;;;;5050613;28;20491;-80
2021/10/22 13:06:17;;;;;;;1.43;1.20;;;13.10;58.30;;;;;;5045892;28;21016;-80
2021/10/22 13:08:50;;;;;;;2.00;1.10;;;13.00;59.70;;;;;;5040173;28;20460;-80